createdAt,value
2019-01-26T00:01:48.051Z,9.23
2019-01-26T00:04:17.288Z,9.73
2019-01-26T00:06:47.618Z,11.00
2019-01-26T00:09:17.119Z,9.80
2019-01-26T00:11:48.234Z,11.23
2019-01-26T00:14:17.986Z,12.27
2019-01-26T00:16:47.294Z,10.27
2019-01-26T00:19:16.509Z,11.50
2019-01-26T00:21:47.012Z,10.97
2019-01-26T00:24:17.667Z,12.67
2019-01-26T00:26:47.282Z,10.30
2019-01-26T00:29:18.391Z,10.67
2019-01-26T00:31:49.954Z,9.83
2019-01-26T00:34:19.232Z,8.33
2019-01-26T00:36:50.491Z,9.53
2019-01-26T00:39:21.648Z,9.70
2019-01-26T00:41:50.933Z,11.03
2019-01-26T00:44:23.438Z,7.07
2019-01-26T00:46:56.163Z,10.10
2019-01-26T00:49:25.843Z,10.20
2019-01-26T00:51:57.372Z,9.07
2019-01-26T00:54:28.544Z,8.87
2019-01-26T00:57:00.318Z,11.27
2019-01-26T00:59:32.654Z,11.13
2019-01-26T01:02:01.954Z,10.17
2019-01-26T01:04:31.497Z,10.30
2019-01-26T01:07:04.762Z,10.80
2019-01-26T01:09:36.315Z,10.87
2019-01-26T01:12:05.858Z,10.10
2019-01-26T01:14:36.877Z,10.43
2019-01-26T01:17:07.223Z,8.80
2019-01-26T01:19:36.602Z,11.27
2019-01-26T01:22:06.133Z,10.47
2019-01-26T01:24:35.376Z,11.20
2019-01-26T01:27:04.998Z,9.77
2019-01-26T01:29:34.337Z,8.87
2019-01-26T01:32:03.615Z,11.13
2019-01-26T01:34:32.856Z,9.83
2019-01-26T01:37:02.124Z,9.53
2019-01-26T01:39:31.374Z,7.70
2019-01-26T01:42:00.795Z,14.10
2019-01-26T01:44:30.087Z,10.87
2019-01-26T01:46:59.593Z,10.37
2019-01-26T01:49:29.499Z,11.90
2019-01-26T01:51:58.715Z,8.93
2019-01-26T01:54:27.927Z,9.67
2019-01-26T01:56:57.226Z,8.40
2019-01-26T01:59:28.933Z,9.67
2019-01-26T02:01:58.122Z,10.80
2019-01-26T02:04:27.331Z,12.60
2019-01-26T02:06:56.621Z,10.87
2019-01-26T02:09:25.850Z,12.23
2019-01-26T02:11:55.065Z,13.23
2019-01-26T02:14:28.396Z,9.67
2019-01-26T02:16:57.617Z,11.77
2019-01-26T02:19:26.870Z,13.87
2019-01-26T02:21:56.254Z,12.90
2019-01-26T02:24:25.808Z,9.40
2019-01-26T02:26:55.030Z,11.90
2019-01-26T02:29:24.318Z,10.10
2019-01-26T02:31:53.517Z,8.97
2019-01-26T02:34:23.672Z,9.97
2019-01-26T02:36:52.946Z,12.60
2019-01-26T02:39:22.261Z,16.33
2019-01-26T02:41:51.469Z,13.80
2019-01-26T02:44:20.708Z,12.30
2019-01-26T02:46:49.946Z,14.73
2019-01-26T02:49:19.159Z,11.33
2019-01-26T02:51:48.676Z,13.13
2019-01-26T02:54:17.894Z,10.40
2019-01-26T02:56:47.115Z,12.17
2019-01-26T02:59:16.343Z,10.53
2019-01-26T03:01:45.657Z,10.30
2019-01-26T03:04:14.941Z,11.67
2019-01-26T03:06:44.183Z,12.10
2019-01-26T03:09:13.384Z,12.00
2019-01-26T03:11:42.585Z,12.60
2019-01-26T03:14:11.908Z,15.77
2019-01-26T03:16:41.452Z,16.43
2019-01-26T03:19:10.663Z,12.30
2019-01-26T03:21:39.927Z,13.27
2019-01-26T03:24:09.276Z,18.20
2019-01-26T03:26:38.497Z,13.17
2019-01-26T03:29:07.993Z,10.80
2019-01-26T03:31:37.234Z,13.10
2019-01-26T03:34:06.461Z,12.97
2019-01-26T03:36:35.759Z,17.00
2019-01-26T03:39:08.243Z,13.17
2019-01-26T03:41:37.518Z,14.03
2019-01-26T03:44:07.144Z,12.87
2019-01-26T03:46:38.710Z,12.40
2019-01-26T03:49:07.994Z,13.27
2019-01-26T03:51:37.209Z,11.97
2019-01-26T03:54:06.596Z,12.67
2019-01-26T03:56:35.795Z,15.07
2019-01-26T03:59:05.081Z,13.67
2019-01-26T04:01:34.473Z,11.53
2019-01-26T04:04:03.869Z,13.93
2019-01-26T04:06:33.122Z,12.93
2019-01-26T04:09:02.410Z,10.73
2019-01-26T04:11:31.628Z,13.27
2019-01-26T04:14:00.879Z,10.30
2019-01-26T04:16:30.098Z,9.50
2019-01-26T04:18:59.306Z,10.03
2019-01-26T04:21:28.598Z,9.80
2019-01-26T04:23:57.790Z,10.13
2019-01-26T04:26:27.100Z,11.10
2019-01-26T04:28:56.328Z,13.13
2019-01-26T04:31:25.531Z,11.10
2019-01-26T04:33:54.722Z,11.83
2019-01-26T04:36:24.206Z,11.60
2019-01-26T04:38:53.397Z,9.87
2019-01-26T04:41:22.596Z,13.70
2019-01-26T04:43:51.855Z,13.67
2019-01-26T04:46:21.375Z,11.13
2019-01-26T04:48:50.583Z,14.33
2019-01-26T04:51:19.888Z,9.80
2019-01-26T04:53:49.159Z,17.17
2019-01-26T04:56:18.667Z,9.70
2019-01-26T04:58:47.914Z,10.73
2019-01-26T05:01:17.138Z,10.50
2019-01-26T05:03:46.342Z,9.43
2019-01-26T05:06:15.587Z,9.73
2019-01-26T05:08:44.817Z,10.57
2019-01-26T05:11:14.038Z,8.90
2019-01-26T05:13:43.277Z,10.33
2019-01-26T05:16:12.505Z,12.73
2019-01-26T05:18:41.680Z,10.90
2019-01-26T05:21:11.087Z,11.57
2019-01-26T05:23:40.297Z,9.07
2019-01-26T05:26:09.516Z,11.13
2019-01-26T05:28:38.895Z,11.73
2019-01-26T05:31:08.081Z,8.73
2019-01-26T05:33:37.556Z,10.83
2019-01-26T05:36:06.817Z,11.20
2019-01-26T05:38:36.020Z,10.23
2019-01-26T05:41:05.220Z,10.13
2019-01-26T05:43:34.454Z,13.57
2019-01-26T05:46:03.665Z,8.40
2019-01-26T05:48:33.289Z,12.43
2019-01-26T05:51:02.610Z,9.57
2019-01-26T05:53:31.831Z,10.60
2019-01-26T05:56:01.048Z,11.73
2019-01-26T05:58:30.566Z,11.40
2019-01-26T06:00:59.754Z,11.67
2019-01-26T06:03:29.146Z,11.93
2019-01-26T06:05:58.415Z,12.40
2019-01-26T06:08:27.632Z,9.93
2019-01-26T06:10:56.853Z,11.03
2019-01-26T06:13:26.083Z,11.10
2019-01-26T06:15:55.529Z,12.17
2019-01-26T06:18:24.740Z,12.47
2019-01-26T06:20:53.972Z,9.07
2019-01-26T06:23:23.200Z,10.97
2019-01-26T06:25:52.432Z,12.93
2019-01-26T06:28:21.658Z,11.17
2019-01-26T06:30:50.972Z,11.10
2019-01-26T06:33:20.168Z,11.30
2019-01-26T06:35:49.395Z,11.83
2019-01-26T06:38:18.602Z,18.37
2019-01-26T06:40:47.842Z,14.60
2019-01-26T06:43:17.077Z,11.97
2019-01-26T06:45:46.279Z,13.07
2019-01-26T06:48:15.495Z,11.37
2019-01-26T06:50:44.828Z,11.47
2019-01-26T06:53:14.066Z,9.23
2019-01-26T06:55:43.272Z,12.57
2019-01-26T06:58:12.574Z,11.33
2019-01-26T07:00:41.872Z,18.03
2019-01-26T07:03:11.093Z,14.43
2019-01-26T07:06:00.595Z,13.93
2019-01-26T07:08:29.794Z,11.00
2019-01-26T07:10:58.995Z,13.97
2019-01-26T07:13:28.425Z,12.73
2019-01-26T07:15:59.804Z,12.43
2019-01-26T07:18:30.123Z,12.67
2019-01-26T07:20:59.486Z,11.93
2019-01-26T07:23:28.646Z,10.23
2019-01-26T07:25:57.960Z,11.23
2019-01-26T07:28:27.183Z,12.50
2019-01-26T07:30:56.496Z,11.40
2019-01-26T07:33:25.737Z,13.10
2019-01-26T07:35:55.023Z,10.47
2019-01-26T07:38:24.667Z,12.23
2019-01-26T07:40:53.869Z,12.50
2019-01-26T07:43:23.143Z,15.13
2019-01-26T07:45:52.357Z,10.87
2019-01-26T07:48:21.561Z,9.83
2019-01-26T07:50:50.821Z,10.50
2019-01-26T07:53:20.019Z,12.17
2019-01-26T07:55:49.208Z,11.50
2019-01-26T07:58:18.458Z,9.03
2019-01-26T08:00:47.787Z,8.70
2019-01-26T08:03:16.999Z,6.53
2019-01-26T08:05:46.231Z,6.43
2019-01-26T08:08:15.431Z,6.17
2019-01-26T08:10:44.630Z,6.40
2019-01-26T08:13:13.887Z,7.97
2019-01-26T08:15:43.105Z,7.80
2019-01-26T08:18:12.306Z,6.43
2019-01-26T08:20:41.554Z,7.03
2019-01-26T08:23:10.751Z,7.37
2019-01-26T08:25:39.978Z,7.30
2019-01-26T08:28:09.251Z,5.53
2019-01-26T08:30:38.543Z,5.43
2019-01-26T08:33:07.853Z,6.37
2019-01-26T08:35:37.456Z,4.50
2019-01-26T08:38:07.176Z,3.90
2019-01-26T08:40:36.370Z,4.97
2019-01-26T08:43:05.664Z,5.70
2019-01-26T08:45:34.899Z,5.40
2019-01-26T08:48:04.606Z,7.97
2019-01-26T08:50:33.862Z,6.07
2019-01-26T08:53:03.054Z,6.67
2019-01-26T08:55:32.758Z,6.03
2019-01-26T08:58:02.448Z,5.43
2019-01-26T09:00:34.128Z,7.27
2019-01-26T09:03:22.568Z,5.50
2019-01-26T09:06:00.690Z,6.83
2019-01-26T09:08:30.061Z,5.63
2019-01-26T09:10:59.691Z,4.87
2019-01-26T09:13:28.712Z,5.70
2019-01-26T09:15:57.949Z,6.03
2019-01-26T09:18:27.207Z,8.10
2019-01-26T09:20:57.412Z,4.37
2019-01-26T09:23:26.664Z,4.83
2019-01-26T09:25:56.946Z,4.60
2019-01-26T09:28:26.344Z,5.77
2019-01-26T09:30:55.561Z,4.90
2019-01-26T09:33:24.900Z,5.40
2019-01-26T09:35:54.460Z,6.83
2019-01-26T09:38:23.754Z,5.60
2019-01-26T09:40:54.286Z,8.13
2019-01-26T09:43:23.588Z,7.40
2019-01-26T09:45:53.052Z,7.73
2019-01-26T09:48:22.377Z,8.73
2019-01-26T09:50:52.065Z,8.07
2019-01-26T09:53:21.317Z,7.63
2019-01-26T09:55:50.513Z,7.53
2019-01-26T09:58:20.178Z,8.17
2019-01-26T10:00:49.399Z,9.40
2019-01-26T10:03:18.607Z,10.20
2019-01-26T10:05:47.796Z,8.87
2019-01-26T10:08:17.017Z,8.33
2019-01-26T10:10:46.236Z,9.60
2019-01-26T10:13:15.486Z,8.03
2019-01-26T10:15:44.828Z,11.47
2019-01-26T10:18:14.165Z,6.90
2019-01-26T10:20:43.555Z,7.43
2019-01-26T10:23:12.859Z,7.60
2019-01-26T10:25:48.391Z,6.20
2019-01-26T10:28:13.117Z,6.50
2019-01-26T10:30:48.933Z,10.63
2019-01-26T10:33:18.170Z,6.97
2019-01-26T10:36:18.720Z,7.17
2019-01-26T10:39:06.947Z,7.63
2019-01-26T10:41:53.834Z,7.63
2019-01-26T10:44:26.537Z,6.53
2019-01-26T10:46:55.783Z,7.60
2019-01-26T10:49:24.988Z,7.50
2019-01-26T10:51:54.424Z,7.73
2019-01-26T10:54:23.619Z,7.23
2019-01-26T10:56:52.897Z,8.27
2019-01-26T10:59:22.218Z,7.90
2019-01-26T11:01:53.041Z,6.20
2019-01-26T11:04:22.273Z,6.90
2019-01-26T11:06:51.512Z,6.03
2019-01-26T11:09:20.838Z,6.80
2019-01-26T11:11:50.083Z,7.57
2019-01-26T11:14:19.352Z,8.30
2019-01-26T11:16:48.553Z,6.20
2019-01-26T11:19:17.750Z,7.40
2019-01-26T11:21:47.216Z,7.70
2019-01-26T11:24:16.452Z,6.43
2019-01-26T11:26:49.438Z,8.73
2019-01-26T11:29:16.606Z,7.70
2019-01-26T11:31:45.825Z,7.37
2019-01-26T11:34:15.121Z,7.73
2019-01-26T11:36:44.420Z,7.67
2019-01-26T11:39:13.721Z,6.73
2019-01-26T11:41:43.009Z,7.27
2019-01-26T11:44:12.382Z,7.83
2019-01-26T11:47:00.562Z,6.33
2019-01-26T11:49:29.827Z,7.60
2019-01-26T11:52:09.669Z,8.67
2019-01-26T11:54:58.097Z,7.87
2019-01-26T11:57:30.087Z,10.37
2019-01-26T12:00:27.214Z,9.77
2019-01-26T12:03:08.282Z,9.25
2019-01-26T12:05:59.714Z,7.67
2019-01-26T12:08:29.094Z,8.27
2019-01-26T12:10:58.348Z,8.23
2019-01-26T12:13:27.608Z,9.77
2019-01-26T12:15:56.813Z,6.83
2019-01-26T12:18:26.126Z,8.60
2019-01-26T12:20:55.830Z,6.03
2019-01-26T12:23:25.121Z,6.97
2019-01-26T12:25:54.536Z,7.10
2019-01-26T12:28:23.844Z,8.27
2019-01-26T12:30:53.086Z,7.80
2019-01-26T12:33:22.410Z,6.83
2019-01-26T12:35:51.852Z,8.13
2019-01-26T12:38:21.213Z,8.57
2019-01-26T12:40:50.391Z,6.77
2019-01-26T12:43:19.650Z,6.83
2019-01-26T12:45:48.871Z,7.83
2019-01-26T12:48:18.106Z,7.80
2019-01-26T12:50:47.694Z,7.00
2019-01-26T12:53:17.135Z,6.57
2019-01-26T12:55:46.365Z,8.53
2019-01-26T12:58:15.642Z,8.60
2019-01-26T13:00:46.318Z,10.10
2019-01-26T13:03:15.669Z,9.60
2019-01-26T13:05:44.964Z,7.50
2019-01-26T13:08:15.916Z,9.47
2019-01-26T13:10:48.122Z,11.57
2019-01-26T13:13:18.990Z,9.83
2019-01-26T13:15:48.234Z,11.43
2019-01-26T13:18:17.525Z,11.03
2019-01-26T13:20:46.757Z,11.93
2019-01-26T13:23:16.057Z,14.70
2019-01-26T13:25:45.493Z,11.87
2019-01-26T13:28:14.717Z,12.33
2019-01-26T13:30:43.954Z,11.43
2019-01-26T13:33:13.217Z,10.97
2019-01-26T13:35:42.423Z,12.27
2019-01-26T13:38:11.630Z,10.20
2019-01-26T13:40:41.015Z,12.17
2019-01-26T13:43:10.308Z,11.50
2019-01-26T13:45:39.810Z,11.40
2019-01-26T13:48:09.127Z,12.30
2019-01-26T13:50:38.342Z,12.87
2019-01-26T13:53:07.553Z,13.30
2019-01-26T13:55:36.874Z,12.57
2019-01-26T13:58:06.353Z,10.60
2019-01-26T14:00:36.067Z,11.10
2019-01-26T14:03:06.088Z,9.77
2019-01-26T14:05:35.292Z,11.43
2019-01-26T14:08:04.604Z,12.50
2019-01-26T14:10:34.285Z,12.10
2019-01-26T14:13:03.496Z,12.00
2019-01-26T14:15:32.756Z,11.33
2019-01-26T14:18:02.020Z,17.00
2019-01-26T14:20:31.237Z,14.10
2019-01-26T14:23:00.614Z,14.63
2019-01-26T14:25:29.891Z,14.97
2019-01-26T14:27:59.822Z,16.87
2019-01-26T14:30:32.041Z,15.60
2019-01-26T14:33:01.276Z,14.53
2019-01-26T14:35:30.787Z,16.30
2019-01-26T14:37:59.996Z,17.13
2019-01-26T14:40:31.602Z,17.23
2019-01-26T14:43:01.193Z,17.43
2019-01-26T14:45:30.389Z,18.97
2019-01-26T14:47:59.613Z,16.87
2019-01-26T14:50:28.868Z,16.60
2019-01-26T14:52:58.079Z,15.50
2019-01-26T14:55:27.867Z,18.37
2019-01-26T14:57:57.290Z,16.37
2019-01-26T15:00:28.540Z,17.17
2019-01-26T15:02:57.782Z,17.80
2019-01-26T15:05:27.397Z,18.27
2019-01-26T15:07:56.951Z,21.37
2019-01-26T15:10:26.434Z,20.57
2019-01-26T15:12:55.621Z,17.10
2019-01-26T15:15:25.069Z,18.13
2019-01-26T15:17:54.611Z,16.87
2019-01-26T15:20:26.572Z,19.43
2019-01-26T15:22:55.779Z,16.67
2019-01-26T15:25:25.041Z,18.67
2019-01-26T15:27:55.946Z,17.97
2019-01-26T15:30:33.714Z,19.47
2019-01-26T15:33:06.253Z,18.90
2019-01-26T15:35:35.082Z,20.73
2019-01-26T15:38:04.994Z,20.23
2019-01-26T15:40:34.217Z,21.17
2019-01-26T15:43:03.430Z,23.50
2019-01-26T15:45:35.061Z,22.33
2019-01-26T15:48:05.012Z,19.70
2019-01-26T15:50:34.221Z,22.77
2019-01-26T15:53:03.493Z,20.40
2019-01-26T15:55:32.796Z,23.67
2019-01-26T15:58:02.201Z,26.73
2019-01-26T16:00:37.072Z,22.33
2019-01-26T16:03:06.374Z,26.60
2019-01-26T16:05:35.879Z,23.07
2019-01-26T16:08:06.783Z,23.10
2019-01-26T16:10:36.022Z,23.17
2019-01-26T16:13:07.295Z,25.30
2019-01-26T16:15:37.224Z,32.67
2019-01-26T16:18:09.319Z,26.33
2019-01-26T16:20:38.580Z,26.17
2019-01-26T16:23:09.498Z,25.80
2019-01-26T16:25:39.584Z,28.17
2019-01-26T16:28:08.957Z,28.33
2019-01-26T16:30:38.545Z,27.80
2019-01-26T16:33:07.831Z,29.57
2019-01-26T16:35:37.049Z,28.53
2019-01-26T16:38:06.509Z,26.40
2019-01-26T16:40:37.082Z,30.67
2019-01-26T16:43:06.717Z,30.33
2019-01-26T16:45:38.030Z,28.37
2019-01-26T16:48:10.558Z,28.33
2019-01-26T16:50:40.938Z,28.20
2019-01-26T16:53:14.754Z,25.83
2019-01-26T16:55:43.954Z,27.37
2019-01-26T16:58:14.467Z,30.57
2019-01-26T17:00:46.309Z,30.87
2019-01-26T17:03:16.977Z,23.37
2019-01-26T17:05:48.016Z,28.97
2019-01-26T17:08:17.305Z,27.00
2019-01-26T17:10:46.528Z,24.17
2019-01-26T17:13:15.950Z,27.17
2019-01-26T17:15:45.438Z,25.23
2019-01-26T17:18:15.055Z,24.77
2019-01-26T17:20:44.869Z,29.20
2019-01-26T17:23:14.152Z,22.77
2019-01-26T17:25:43.352Z,25.17
2019-01-26T17:28:12.940Z,25.50
2019-01-26T17:30:43.257Z,25.77
2019-01-26T17:33:12.540Z,25.50
2019-01-26T17:35:41.735Z,28.57
2019-01-26T17:38:10.969Z,25.53
2019-01-26T17:40:40.264Z,27.10
2019-01-26T17:43:09.469Z,28.67
2019-01-26T17:45:38.825Z,27.40
2019-01-26T17:48:09.096Z,30.20
2019-01-26T17:50:42.318Z,30.97
2019-01-26T17:53:09.376Z,28.13
2019-01-26T17:55:38.597Z,33.47
2019-01-26T17:58:07.801Z,28.50
2019-01-26T18:00:47.990Z,34.00
2019-01-26T18:03:17.306Z,32.63
2019-01-26T18:05:46.582Z,32.80
2019-01-26T18:08:15.824Z,31.73
2019-01-26T18:10:45.415Z,29.47
2019-01-26T18:13:14.858Z,33.50
2019-01-26T18:15:44.095Z,36.13
2019-01-26T18:18:19.470Z,37.53
2019-01-26T18:20:49.348Z,33.43
2019-01-26T18:23:24.689Z,32.10
2019-01-26T18:25:53.933Z,32.30
2019-01-26T18:28:23.170Z,32.10
2019-01-26T18:30:52.509Z,39.30
2019-01-26T18:33:21.735Z,36.43
2019-01-26T18:35:50.980Z,34.97
2019-01-26T18:38:20.199Z,33.70
2019-01-26T18:40:49.534Z,35.37
2019-01-26T18:43:18.749Z,36.13
2019-01-26T18:45:48.045Z,35.27
2019-01-26T18:48:17.399Z,37.70
2019-01-26T18:50:48.440Z,38.13
2019-01-26T18:53:17.755Z,35.27
2019-01-26T18:55:46.996Z,38.87
2019-01-26T18:58:16.196Z,38.87
2019-01-26T19:00:48.461Z,32.63
2019-01-26T19:03:45.666Z,37.10
2019-01-26T19:06:14.880Z,37.13
2019-01-26T19:08:44.593Z,38.73
2019-01-26T19:11:13.837Z,34.60
2019-01-26T19:13:43.047Z,36.03
2019-01-26T19:16:12.462Z,35.03
2019-01-26T19:18:41.726Z,35.63
2019-01-26T19:21:10.940Z,31.10
2019-01-26T19:23:40.190Z,36.10
2019-01-26T19:26:09.455Z,36.07
2019-01-26T19:28:38.739Z,33.60
2019-01-26T19:31:08.013Z,30.83
2019-01-26T19:33:37.254Z,35.70
2019-01-26T19:36:06.526Z,33.63
2019-01-26T19:38:35.740Z,33.90
2019-01-26T19:41:05.217Z,32.17
2019-01-26T19:43:34.522Z,28.00
2019-01-26T19:46:03.815Z,28.50
2019-01-26T19:48:33.077Z,31.80
2019-01-26T19:51:02.297Z,30.90
2019-01-26T19:53:31.589Z,36.13
2019-01-26T19:56:00.980Z,33.97
2019-01-26T19:58:30.975Z,32.93
2019-01-26T20:01:00.175Z,33.97
2019-01-26T20:03:29.455Z,35.87
2019-01-26T20:05:58.641Z,37.10
2019-01-26T20:08:27.944Z,37.30
2019-01-26T20:10:57.279Z,32.83
2019-01-26T20:13:26.583Z,33.50
2019-01-26T20:15:55.866Z,36.13
2019-01-26T20:18:25.163Z,33.77
2019-01-26T20:20:54.507Z,32.07
2019-01-26T20:23:24.069Z,38.77
2019-01-26T20:25:53.647Z,36.20
2019-01-26T20:28:23.129Z,37.70
2019-01-26T20:30:52.431Z,40.60
2019-01-26T20:33:25.043Z,37.03
2019-01-26T20:35:54.262Z,35.13
2019-01-26T20:38:23.566Z,32.67
2019-01-26T20:40:52.895Z,34.87
2019-01-26T20:43:22.092Z,30.87
2019-01-26T20:45:51.298Z,31.20
2019-01-26T20:48:20.838Z,28.50
2019-01-26T20:50:50.045Z,36.90
2019-01-26T20:53:19.271Z,33.07
2019-01-26T20:55:48.581Z,31.67
2019-01-26T20:58:17.948Z,31.20
2019-01-26T21:00:47.242Z,33.97
2019-01-26T21:03:16.583Z,30.13
2019-01-26T21:05:45.804Z,32.57
2019-01-26T21:08:15.053Z,26.90
2019-01-26T21:10:44.390Z,32.37
2019-01-26T21:13:16.467Z,30.13
2019-01-26T21:15:46.891Z,31.83
2019-01-26T21:18:16.192Z,27.50
2019-01-26T21:20:45.410Z,29.63
2019-01-26T21:23:14.634Z,28.97
2019-01-26T21:25:43.912Z,32.40
2019-01-26T21:28:13.119Z,30.87
2019-01-26T21:30:42.335Z,28.60
2019-01-26T21:33:11.713Z,31.23
2019-01-26T21:35:43.774Z,27.23
2019-01-26T21:38:35.875Z,28.80
2019-01-26T21:41:05.082Z,29.63
2019-01-26T21:43:34.305Z,26.23
2019-01-26T21:46:06.375Z,26.27
2019-01-26T21:48:37.991Z,29.57
2019-01-26T21:51:07.196Z,28.90
2019-01-26T21:53:36.460Z,24.70
2019-01-26T21:56:05.678Z,29.53
2019-01-26T21:58:34.889Z,30.60
2019-01-26T22:01:04.341Z,27.33
2019-01-26T22:03:34.011Z,32.40
2019-01-26T22:06:03.327Z,26.00
2019-01-26T22:08:32.649Z,24.23
2019-01-26T22:11:01.887Z,26.47
2019-01-26T22:13:31.114Z,27.80
2019-01-26T22:16:00.368Z,25.67
2019-01-26T22:18:29.663Z,28.70
2019-01-26T22:20:58.925Z,24.50
2019-01-26T22:23:28.162Z,28.13
2019-01-26T22:25:57.406Z,23.40
2019-01-26T22:28:26.630Z,27.30
2019-01-26T22:30:55.893Z,28.23
2019-01-26T22:33:25.109Z,26.60
2019-01-26T22:35:54.603Z,27.97
2019-01-26T22:38:23.844Z,27.10
2019-01-26T22:40:53.078Z,24.37
2019-01-26T22:43:22.302Z,27.13
2019-01-26T22:45:51.547Z,24.97
2019-01-26T22:48:20.785Z,24.00
2019-01-26T22:50:50.089Z,26.97
2019-01-26T22:53:19.557Z,25.60
2019-01-26T22:55:48.801Z,23.83
2019-01-26T22:58:18.026Z,25.63
2019-01-26T23:01:20.739Z,27.73
2019-01-26T23:04:38.843Z,25.63
2019-01-26T23:07:46.661Z,25.70
2019-01-26T23:10:46.693Z,24.23
2019-01-26T23:13:49.168Z,25.53
2019-01-26T23:16:55.089Z,22.37
2019-01-26T23:19:28.478Z,20.23
2019-01-26T23:22:34.863Z,19.60
2019-01-26T23:25:45.919Z,21.03
2019-01-26T23:28:36.802Z,21.00
2019-01-26T23:31:20.620Z,18.90
2019-01-26T23:33:51.672Z,18.80
2019-01-26T23:36:21.162Z,14.50
2019-01-26T23:38:50.410Z,15.30
2019-01-26T23:41:19.677Z,17.10
2019-01-26T23:43:48.888Z,15.90
2019-01-26T23:46:18.162Z,12.03
2019-01-26T23:48:47.488Z,12.33
2019-01-26T23:51:16.698Z,15.10
2019-01-26T23:53:46.103Z,11.93
2019-01-26T23:56:15.298Z,10.40
2019-01-26T23:58:44.517Z,12.53
